sensor_id;sensor_type;location;lat;lon;timestamp;temperature;humidity
77985;DHT22;67177;47.240;-1.546;2023-01-29T00:02:20;3.50;60.50
77985;DHT22;67177;47.240;-1.546;2023-01-29T00:04:45;3.50;60.50
77985;DHT22;67177;47.240;-1.546;2023-01-29T00:07:11;3.40;60.50
77985;DHT22;67177;47.240;-1.546;2023-01-29T00:09:37;3.50;60.50
77985;DHT22;67177;47.240;-1.546;2023-01-29T00:12:03;3.40;60.60
77985;DHT22;67177;47.240;-1.546;2023-01-29T00:14:28;3.40;60.60
77985;DHT22;67177;47.240;-1.546;2023-01-29T00:16:54;3.40;60.60
77985;DHT22;67177;47.240;-1.546;2023-01-29T00:19:20;3.40;60.60
77985;DHT22;67177;47.240;-1.546;2023-01-29T00:21:45;3.40;60.60
77985;DHT22;67177;47.240;-1.546;2023-01-29T00:24:11;3.40;60.50
77985;DHT22;67177;47.240;-1.546;2023-01-29T00:26:37;3.40;60.60
77985;DHT22;67177;47.240;-1.546;2023-01-29T00:29:07;3.30;60.90
77985;DHT22;67177;47.240;-1.546;2023-01-29T00:31:33;3.30;61.00
77985;DHT22;67177;47.240;-1.546;2023-01-29T00:33:59;3.30;61.10
77985;DHT22;67177;47.240;-1.546;2023-01-29T00:36:25;3.20;61.00
77985;DHT22;67177;47.240;-1.546;2023-01-29T00:39:00;3.20;61.10
77985;DHT22;67177;47.240;-1.546;2023-01-29T00:41:35;3.20;61.10
77985;DHT22;67177;47.240;-1.546;2023-01-29T00:44:19;3.20;61.10
77985;DHT22;67177;47.240;-1.546;2023-01-29T00:47:03;3.20;61.20
77985;DHT22;67177;47.240;-1.546;2023-01-29T00:49:29;3.20;61.30
77985;DHT22;67177;47.240;-1.546;2023-01-29T00:51:55;3.10;61.30
77985;DHT22;67177;47.240;-1.546;2023-01-29T00:54:39;3.10;61.40
77985;DHT22;67177;47.240;-1.546;2023-01-29T00:57:04;3.10;61.30
77985;DHT22;67177;47.240;-1.546;2023-01-29T00:59:30;3.00;61.40
77985;DHT22;67177;47.240;-1.546;2023-01-29T01:01:56;3.00;61.40
77985;DHT22;67177;47.240;-1.546;2023-01-29T01:04:40;3.00;61.50
77985;DHT22;67177;47.240;-1.546;2023-01-29T01:07:06;3.00;61.70
77985;DHT22;67177;47.240;-1.546;2023-01-29T01:09:34;2.90;61.70
77985;DHT22;67177;47.240;-1.546;2023-01-29T01:12:18;2.90;61.80
77985;DHT22;67177;47.240;-1.546;2023-01-29T01:14:44;2.90;61.70
77985;DHT22;67177;47.240;-1.546;2023-01-29T01:17:10;2.90;61.60
77985;DHT22;67177;47.240;-1.546;2023-01-29T01:19:36;3.00;61.40
77985;DHT22;67177;47.240;-1.546;2023-01-29T01:22:01;2.90;61.40
77985;DHT22;67177;47.240;-1.546;2023-01-29T01:24:29;2.90;61.70
77985;DHT22;67177;47.240;-1.546;2023-01-29T01:26:55;2.80;61.90
77985;DHT22;67177;47.240;-1.546;2023-01-29T01:29:20;2.80;62.00
77985;DHT22;67177;47.240;-1.546;2023-01-29T01:31:46;2.80;62.00
77985;DHT22;67177;47.240;-1.546;2023-01-29T01:34:12;2.80;62.00
77985;DHT22;67177;47.240;-1.546;2023-01-29T01:36:37;2.80;62.20
77985;DHT22;67177;47.240;-1.546;2023-01-29T01:39:03;2.80;62.10
77985;DHT22;67177;47.240;-1.546;2023-01-29T01:41:29;2.80;62.30
77985;DHT22;67177;47.240;-1.546;2023-01-29T01:46:22;2.80;62.10
77985;DHT22;67177;47.240;-1.546;2023-01-29T01:48:53;2.80;62.30
77985;DHT22;67177;47.240;-1.546;2023-01-29T01:51:23;2.70;62.30
77985;DHT22;67177;47.240;-1.546;2023-01-29T01:53:59;2.80;62.30
77985;DHT22;67177;47.240;-1.546;2023-01-29T01:56:29;2.80;62.10
77985;DHT22;67177;47.240;-1.546;2023-01-29T01:59:05;2.80;62.10
77985;DHT22;67177;47.240;-1.546;2023-01-29T02:01:31;2.80;62.20
77985;DHT22;67177;47.240;-1.546;2023-01-29T02:04:00;2.80;62.30
77985;DHT22;67177;47.240;-1.546;2023-01-29T02:06:45;2.80;62.40
77985;DHT22;67177;47.240;-1.546;2023-01-29T02:09:38;2.80;62.60
77985;DHT22;67177;47.240;-1.546;2023-01-29T02:12:08;2.80;62.60
77985;DHT22;67177;47.240;-1.546;2023-01-29T02:14:35;2.80;62.70
77985;DHT22;67177;47.240;-1.546;2023-01-29T02:17:12;2.90;62.60
77985;DHT22;67177;47.240;-1.546;2023-01-29T02:28:07;3.00;62.70
77985;DHT22;67177;47.240;-1.546;2023-01-29T02:30:40;3.00;62.80
77985;DHT22;67177;47.240;-1.546;2023-01-29T02:44:41;3.00;62.90
77985;DHT22;67177;47.240;-1.546;2023-01-29T02:47:18;3.00;62.80
77985;DHT22;67177;47.240;-1.546;2023-01-29T02:49:58;3.00;63.00
77985;DHT22;67177;47.240;-1.546;2023-01-29T02:53:23;2.90;63.00
77985;DHT22;67177;47.240;-1.546;2023-01-29T02:55:28;3.00;63.00
77985;DHT22;67177;47.240;-1.546;2023-01-29T02:57:59;3.00;63.00
77985;DHT22;67177;47.240;-1.546;2023-01-29T03:00:33;3.00;62.80
77985;DHT22;67177;47.240;-1.546;2023-01-29T03:08:10;3.00;63.20
77985;DHT22;67177;47.240;-1.546;2023-01-29T03:10:41;3.10;63.20
77985;DHT22;67177;47.240;-1.546;2023-01-29T03:13:24;3.00;63.30
77985;DHT22;67177;47.240;-1.546;2023-01-29T03:16:07;3.00;63.40
77985;DHT22;67177;47.240;-1.546;2023-01-29T03:18:45;3.00;63.30
77985;DHT22;67177;47.240;-1.546;2023-01-29T03:21:22;3.00;63.50
77985;DHT22;67177;47.240;-1.546;2023-01-29T03:24:10;3.10;63.60
77985;DHT22;67177;47.240;-1.546;2023-01-29T03:26:57;3.10;63.80
77985;DHT22;67177;47.240;-1.546;2023-01-29T03:29:44;3.00;63.70
77985;DHT22;67177;47.240;-1.546;2023-01-29T03:32:29;3.10;63.70
77985;DHT22;67177;47.240;-1.546;2023-01-29T03:35:02;3.20;63.60
77985;DHT22;67177;47.240;-1.546;2023-01-29T03:37:45;3.20;63.60
77985;DHT22;67177;47.240;-1.546;2023-01-29T03:40:12;3.20;63.50
77985;DHT22;67177;47.240;-1.546;2023-01-29T03:50:55;3.10;64.00
77985;DHT22;67177;47.240;-1.546;2023-01-29T04:01:56;3.20;63.90
77985;DHT22;67177;47.240;-1.546;2023-01-29T04:04:30;3.20;64.00
77985;DHT22;67177;47.240;-1.546;2023-01-29T04:09:44;3.20;64.00
77985;DHT22;67177;47.240;-1.546;2023-01-29T04:12:14;3.20;64.00
77985;DHT22;67177;47.240;-1.546;2023-01-29T04:14:41;3.20;64.30
77985;DHT22;67177;47.240;-1.546;2023-01-29T04:17:19;3.20;64.10
77985;DHT22;67177;47.240;-1.546;2023-01-29T04:19:46;3.20;64.20
77985;DHT22;67177;47.240;-1.546;2023-01-29T04:22:25;3.20;64.10
77985;DHT22;67177;47.240;-1.546;2023-01-29T04:24:52;3.20;64.20
77985;DHT22;67177;47.240;-1.546;2023-01-29T04:30:22;3.10;64.20
77985;DHT22;67177;47.240;-1.546;2023-01-29T04:33:16;3.10;64.40
77985;DHT22;67177;47.240;-1.546;2023-01-29T04:46:20;3.10;64.80
77985;DHT22;67177;47.240;-1.546;2023-01-29T04:59:32;3.20;64.90
77985;DHT22;67177;47.240;-1.546;2023-01-29T05:02:00;3.20;64.80
77985;DHT22;67177;47.240;-1.546;2023-01-29T05:04:28;3.20;64.80
77985;DHT22;67177;47.240;-1.546;2023-01-29T05:06:56;3.20;64.90
77985;DHT22;67177;47.240;-1.546;2023-01-29T05:09:24;3.30;64.70
77985;DHT22;67177;47.240;-1.546;2023-01-29T05:11:50;3.20;65.00
77985;DHT22;67177;47.240;-1.546;2023-01-29T05:14:17;3.20;65.10
77985;DHT22;67177;47.240;-1.546;2023-01-29T05:16:51;3.30;65.00
77985;DHT22;67177;47.240;-1.546;2023-01-29T05:19:17;3.30;65.00
77985;DHT22;67177;47.240;-1.546;2023-01-29T05:21:45;3.20;65.20
77985;DHT22;67177;47.240;-1.546;2023-01-29T05:24:32;3.30;65.30
77985;DHT22;67177;47.240;-1.546;2023-01-29T05:27:00;3.30;65.30
77985;DHT22;67177;47.240;-1.546;2023-01-29T05:29:45;3.30;65.10
77985;DHT22;67177;47.240;-1.546;2023-01-29T05:32:11;3.30;65.00
77985;DHT22;67177;47.240;-1.546;2023-01-29T05:34:37;3.30;64.80
77985;DHT22;67177;47.240;-1.546;2023-01-29T05:37:02;3.30;65.00
77985;DHT22;67177;47.240;-1.546;2023-01-29T05:39:28;3.30;65.10
77985;DHT22;67177;47.240;-1.546;2023-01-29T05:41:54;3.30;65.20
77985;DHT22;67177;47.240;-1.546;2023-01-29T05:44:20;3.30;65.10
77985;DHT22;67177;47.240;-1.546;2023-01-29T05:46:45;3.30;65.30
77985;DHT22;67177;47.240;-1.546;2023-01-29T05:49:11;3.30;65.10
77985;DHT22;67177;47.240;-1.546;2023-01-29T05:51:37;3.30;65.10
77985;DHT22;67177;47.240;-1.546;2023-01-29T05:54:03;3.30;65.20
77985;DHT22;67177;47.240;-1.546;2023-01-29T05:56:29;3.40;65.10
77985;DHT22;67177;47.240;-1.546;2023-01-29T05:58:55;3.30;65.30
77985;DHT22;67177;47.240;-1.546;2023-01-29T06:01:23;3.30;65.10
77985;DHT22;67177;47.240;-1.546;2023-01-29T06:03:52;3.30;65.20
77985;DHT22;67177;47.240;-1.546;2023-01-29T06:06:17;3.30;65.40
77985;DHT22;67177;47.240;-1.546;2023-01-29T06:08:43;3.30;65.50
77985;DHT22;67177;47.240;-1.546;2023-01-29T06:11:11;3.30;65.40
77985;DHT22;67177;47.240;-1.546;2023-01-29T06:13:37;3.30;65.40
77985;DHT22;67177;47.240;-1.546;2023-01-29T06:16:07;3.30;65.20
77985;DHT22;67177;47.240;-1.546;2023-01-29T06:18:33;3.30;65.30
77985;DHT22;67177;47.240;-1.546;2023-01-29T06:21:01;3.20;65.20
77985;DHT22;67177;47.240;-1.546;2023-01-29T06:23:27;3.20;65.10
77985;DHT22;67177;47.240;-1.546;2023-01-29T06:25:52;3.20;65.20
77985;DHT22;67177;47.240;-1.546;2023-01-29T06:28:18;3.20;65.20
77985;DHT22;67177;47.240;-1.546;2023-01-29T06:30:44;3.20;65.40
77985;DHT22;67177;47.240;-1.546;2023-01-29T06:33:09;3.20;65.30
77985;DHT22;67177;47.240;-1.546;2023-01-29T06:35:35;3.20;65.20
77985;DHT22;67177;47.240;-1.546;2023-01-29T06:38:00;3.10;65.30
77985;DHT22;67177;47.240;-1.546;2023-01-29T06:40:26;3.20;65.30
77985;DHT22;67177;47.240;-1.546;2023-01-29T06:42:52;3.20;65.30
77985;DHT22;67177;47.240;-1.546;2023-01-29T06:45:17;3.20;65.40
77985;DHT22;67177;47.240;-1.546;2023-01-29T06:47:43;3.20;65.30
77985;DHT22;67177;47.240;-1.546;2023-01-29T06:50:09;3.20;65.40
77985;DHT22;67177;47.240;-1.546;2023-01-29T06:52:35;3.20;65.50
77985;DHT22;67177;47.240;-1.546;2023-01-29T06:55:01;3.20;65.60
77985;DHT22;67177;47.240;-1.546;2023-01-29T06:57:28;3.20;65.70
77985;DHT22;67177;47.240;-1.546;2023-01-29T06:59:54;3.20;65.80
77985;DHT22;67177;47.240;-1.546;2023-01-29T07:02:20;3.20;65.80
77985;DHT22;67177;47.240;-1.546;2023-01-29T07:04:45;3.30;65.80
77985;DHT22;67177;47.240;-1.546;2023-01-29T07:07:11;3.30;65.90
77985;DHT22;67177;47.240;-1.546;2023-01-29T07:09:40;3.30;65.70
77985;DHT22;67177;47.240;-1.546;2023-01-29T07:12:06;3.30;65.90
77985;DHT22;67177;47.240;-1.546;2023-01-29T07:14:32;3.30;66.10
77985;DHT22;67177;47.240;-1.546;2023-01-29T07:16:58;3.30;66.00
77985;DHT22;67177;47.240;-1.546;2023-01-29T07:19:24;3.30;65.90
77985;DHT22;67177;47.240;-1.546;2023-01-29T07:21:49;3.30;66.10
77985;DHT22;67177;47.240;-1.546;2023-01-29T07:24:15;3.30;66.20
77985;DHT22;67177;47.240;-1.546;2023-01-29T07:26:41;3.30;66.10
77985;DHT22;67177;47.240;-1.546;2023-01-29T07:29:06;3.30;66.10
77985;DHT22;67177;47.240;-1.546;2023-01-29T07:31:32;3.40;66.00
77985;DHT22;67177;47.240;-1.546;2023-01-29T07:33:58;3.40;65.90
77985;DHT22;67177;47.240;-1.546;2023-01-29T07:36:24;3.40;65.70
77985;DHT22;67177;47.240;-1.546;2023-01-29T07:38:50;3.40;65.60
77985;DHT22;67177;47.240;-1.546;2023-01-29T07:41:16;3.40;65.60
77985;DHT22;67177;47.240;-1.546;2023-01-29T07:43:41;3.40;65.60
77985;DHT22;67177;47.240;-1.546;2023-01-29T07:46:07;3.40;65.40
77985;DHT22;67177;47.240;-1.546;2023-01-29T07:48:33;3.40;65.40
77985;DHT22;67177;47.240;-1.546;2023-01-29T07:50:59;3.50;65.50
77985;DHT22;67177;47.240;-1.546;2023-01-29T07:53:26;3.40;65.60
77985;DHT22;67177;47.240;-1.546;2023-01-29T07:55:52;3.50;65.50
77985;DHT22;67177;47.240;-1.546;2023-01-29T07:58:18;3.50;65.50
77985;DHT22;67177;47.240;-1.546;2023-01-29T08:00:43;3.50;65.60
77985;DHT22;67177;47.240;-1.546;2023-01-29T08:03:13;3.50;65.70
77985;DHT22;67177;47.240;-1.546;2023-01-29T08:05:40;3.50;66.00
77985;DHT22;67177;47.240;-1.546;2023-01-29T08:08:06;3.50;66.10
77985;DHT22;67177;47.240;-1.546;2023-01-29T08:10:32;3.50;66.00
77985;DHT22;67177;47.240;-1.546;2023-01-29T08:13:00;3.50;66.00
77985;DHT22;67177;47.240;-1.546;2023-01-29T08:15:26;3.60;65.80
77985;DHT22;67177;47.240;-1.546;2023-01-29T08:17:53;3.60;65.80
77985;DHT22;67177;47.240;-1.546;2023-01-29T08:20:19;3.60;66.00
77985;DHT22;67177;47.240;-1.546;2023-01-29T08:22:45;3.50;66.10
77985;DHT22;67177;47.240;-1.546;2023-01-29T08:25:11;3.50;65.90
77985;DHT22;67177;47.240;-1.546;2023-01-29T08:27:37;3.50;65.90
77985;DHT22;67177;47.240;-1.546;2023-01-29T08:30:04;3.50;65.80
77985;DHT22;67177;47.240;-1.546;2023-01-29T08:32:30;3.50;65.80
77985;DHT22;67177;47.240;-1.546;2023-01-29T08:34:56;3.50;65.80
77985;DHT22;67177;47.240;-1.546;2023-01-29T08:37:21;3.40;65.90
77985;DHT22;67177;47.240;-1.546;2023-01-29T08:39:47;3.40;66.00
77985;DHT22;67177;47.240;-1.546;2023-01-29T08:42:13;3.40;66.00
77985;DHT22;67177;47.240;-1.546;2023-01-29T08:44:38;3.30;65.90
77985;DHT22;67177;47.240;-1.546;2023-01-29T08:47:04;3.30;66.10
77985;DHT22;67177;47.240;-1.546;2023-01-29T08:49:30;3.30;66.10
77985;DHT22;67177;47.240;-1.546;2023-01-29T08:51:56;3.30;66.10
77985;DHT22;67177;47.240;-1.546;2023-01-29T08:54:22;3.30;66.20
77985;DHT22;67177;47.240;-1.546;2023-01-29T08:56:48;3.30;66.20
77985;DHT22;67177;47.240;-1.546;2023-01-29T08:59:14;3.20;66.20
77985;DHT22;67177;47.240;-1.546;2023-01-29T09:01:40;3.30;66.40
77985;DHT22;67177;47.240;-1.546;2023-01-29T09:04:06;3.30;66.50
77985;DHT22;67177;47.240;-1.546;2023-01-29T09:06:32;3.30;66.40
77985;DHT22;67177;47.240;-1.546;2023-01-29T09:08:57;3.30;66.40
77985;DHT22;67177;47.240;-1.546;2023-01-29T09:11:23;3.30;66.30
77985;DHT22;67177;47.240;-1.546;2023-01-29T09:13:48;3.40;66.20
77985;DHT22;67177;47.240;-1.546;2023-01-29T09:16:14;3.40;66.20
77985;DHT22;67177;47.240;-1.546;2023-01-29T09:18:40;3.40;66.20
77985;DHT22;67177;47.240;-1.546;2023-01-29T09:21:06;3.50;66.10
77985;DHT22;67177;47.240;-1.546;2023-01-29T09:23:31;3.50;66.00
77985;DHT22;67177;47.240;-1.546;2023-01-29T09:25:57;3.50;65.90
77985;DHT22;67177;47.240;-1.546;2023-01-29T09:28:23;3.60;65.10
77985;DHT22;67177;47.240;-1.546;2023-01-29T09:30:48;3.70;64.90
77985;DHT22;67177;47.240;-1.546;2023-01-29T09:33:14;3.70;64.50
77985;DHT22;67177;47.240;-1.546;2023-01-29T09:35:41;3.80;64.20
77985;DHT22;67177;47.240;-1.546;2023-01-29T09:38:08;3.80;64.10
77985;DHT22;67177;47.240;-1.546;2023-01-29T09:43:49;3.90;63.90
77985;DHT22;67177;47.240;-1.546;2023-01-29T09:46:26;3.90;63.70
77985;DHT22;67177;47.240;-1.546;2023-01-29T09:49:16;4.00;63.50
77985;DHT22;67177;47.240;-1.546;2023-01-29T09:51:49;4.00;63.30
77985;DHT22;67177;47.240;-1.546;2023-01-29T09:56:49;4.10;63.30
77985;DHT22;67177;47.240;-1.546;2023-01-29T09:59:21;4.00;63.20
77985;DHT22;67177;47.240;-1.546;2023-01-29T10:02:08;4.10;63.00
77985;DHT22;67177;47.240;-1.546;2023-01-29T10:13:37;4.10;61.80
77985;DHT22;67177;47.240;-1.546;2023-01-29T10:16:10;4.10;61.00
77985;DHT22;67177;47.240;-1.546;2023-01-29T10:24:35;4.20;61.50
77985;DHT22;67177;47.240;-1.546;2023-01-29T10:27:02;4.20;60.80
77985;DHT22;67177;47.240;-1.546;2023-01-29T10:29:29;4.20;60.80
77985;DHT22;67177;47.240;-1.546;2023-01-29T10:31:57;4.30;60.90
77985;DHT22;67177;47.240;-1.546;2023-01-29T10:34:42;4.30;61.00
77985;DHT22;67177;47.240;-1.546;2023-01-29T10:37:19;4.40;61.00
77985;DHT22;67177;47.240;-1.546;2023-01-29T10:39:49;4.40;60.70
77985;DHT22;67177;47.240;-1.546;2023-01-29T10:42:30;4.40;60.10
77985;DHT22;67177;47.240;-1.546;2023-01-29T10:55:56;4.70;60.30
77985;DHT22;67177;47.240;-1.546;2023-01-29T11:01:13;4.80;59.70
77985;DHT22;67177;47.240;-1.546;2023-01-29T11:03:39;4.90;59.50
77985;DHT22;67177;47.240;-1.546;2023-01-29T11:06:29;4.90;59.60
77985;DHT22;67177;47.240;-1.546;2023-01-29T11:14:35;5.00;59.70
77985;DHT22;67177;47.240;-1.546;2023-01-29T11:17:03;5.00;59.70
77985;DHT22;67177;47.240;-1.546;2023-01-29T11:19:41;5.00;59.40
77985;DHT22;67177;47.240;-1.546;2023-01-29T11:22:19;5.10;59.40
77985;DHT22;67177;47.240;-1.546;2023-01-29T11:24:46;5.10;59.30
77985;DHT22;67177;47.240;-1.546;2023-01-29T11:27:32;5.10;59.30
77985;DHT22;67177;47.240;-1.546;2023-01-29T11:30:00;5.20;59.40
77985;DHT22;67177;47.240;-1.546;2023-01-29T11:32:29;5.10;59.40
77985;DHT22;67177;47.240;-1.546;2023-01-29T11:37:45;5.00;59.30
77985;DHT22;67177;47.240;-1.546;2023-01-29T11:42:52;4.90;59.30
77985;DHT22;67177;47.240;-1.546;2023-01-29T11:45:28;4.80;59.30
77985;DHT22;67177;47.240;-1.546;2023-01-29T11:47:57;4.90;58.70
77985;DHT22;67177;47.240;-1.546;2023-01-29T11:50:28;4.90;58.60
77985;DHT22;67177;47.240;-1.546;2023-01-29T11:52:57;4.90;58.70
77985;DHT22;67177;47.240;-1.546;2023-01-29T11:55:29;4.90;58.70
77985;DHT22;67177;47.240;-1.546;2023-01-29T11:58:03;5.00;58.80
77985;DHT22;67177;47.240;-1.546;2023-01-29T12:00:32;5.00;58.40
77985;DHT22;67177;47.240;-1.546;2023-01-29T12:03:41;5.00;58.40
77985;DHT22;67177;47.240;-1.546;2023-01-29T12:06:03;5.10;58.30
77985;DHT22;67177;47.240;-1.546;2023-01-29T12:08:36;5.10;58.60
77985;DHT22;67177;47.240;-1.546;2023-01-29T12:11:15;5.10;58.90
77985;DHT22;67177;47.240;-1.546;2023-01-29T12:13:53;5.10;58.90
77985;DHT22;67177;47.240;-1.546;2023-01-29T12:16:30;5.20;59.10
77985;DHT22;67177;47.240;-1.546;2023-01-29T12:21:56;5.30;58.70
77985;DHT22;67177;47.240;-1.546;2023-01-29T12:27:21;5.40;58.90
77985;DHT22;67177;47.240;-1.546;2023-01-29T12:29:55;5.50;58.80
77985;DHT22;67177;47.240;-1.546;2023-01-29T12:32:52;5.50;58.80
77985;DHT22;67177;47.240;-1.546;2023-01-29T12:35:35;5.60;58.50
77985;DHT22;67177;47.240;-1.546;2023-01-29T12:38:05;5.60;58.50
77985;DHT22;67177;47.240;-1.546;2023-01-29T12:40:46;5.60;58.60
77985;DHT22;67177;47.240;-1.546;2023-01-29T12:43:15;5.70;58.50
77985;DHT22;67177;47.240;-1.546;2023-01-29T12:45:44;5.70;58.40
77985;DHT22;67177;47.240;-1.546;2023-01-29T12:48:17;5.70;58.50
77985;DHT22;67177;47.240;-1.546;2023-01-29T12:50:44;5.70;58.50
77985;DHT22;67177;47.240;-1.546;2023-01-29T12:53:28;5.60;58.30
77985;DHT22;67177;47.240;-1.546;2023-01-29T12:55:59;5.60;58.00
77985;DHT22;67177;47.240;-1.546;2023-01-29T12:58:47;5.60;57.90
77985;DHT22;67177;47.240;-1.546;2023-01-29T13:01:19;5.60;57.70
77985;DHT22;67177;47.240;-1.546;2023-01-29T13:04:05;5.70;57.90
77985;DHT22;67177;47.240;-1.546;2023-01-29T13:06:39;5.60;58.00
77985;DHT22;67177;47.240;-1.546;2023-01-29T13:09:10;5.60;57.70
77985;DHT22;67177;47.240;-1.546;2023-01-29T13:11:59;5.60;57.80
77985;DHT22;67177;47.240;-1.546;2023-01-29T13:14:56;5.60;57.90
77985;DHT22;67177;47.240;-1.546;2023-01-29T13:17:45;5.70;57.80
77985;DHT22;67177;47.240;-1.546;2023-01-29T13:20:19;5.90;57.60
77985;DHT22;67177;47.240;-1.546;2023-01-29T13:22:49;6.10;57.80
77985;DHT22;67177;47.240;-1.546;2023-01-29T13:25:17;6.20;57.60
77985;DHT22;67177;47.240;-1.546;2023-01-29T13:27:44;6.30;57.50
77985;DHT22;67177;47.240;-1.546;2023-01-29T13:30:28;6.40;57.60
77985;DHT22;67177;47.240;-1.546;2023-01-29T13:32:56;6.60;57.50
77985;DHT22;67177;47.240;-1.546;2023-01-29T13:35:38;6.70;57.40
77985;DHT22;67177;47.240;-1.546;2023-01-29T13:38:05;6.70;57.70
77985;DHT22;67177;47.240;-1.546;2023-01-29T13:40:48;6.80;57.30
77985;DHT22;67177;47.240;-1.546;2023-01-29T13:43:19;6.80;57.50
77985;DHT22;67177;47.240;-1.546;2023-01-29T13:45:46;6.80;57.30
77985;DHT22;67177;47.240;-1.546;2023-01-29T13:48:27;6.70;57.20
77985;DHT22;67177;47.240;-1.546;2023-01-29T13:50:59;6.70;57.10
77985;DHT22;67177;47.240;-1.546;2023-01-29T13:53:35;6.60;56.50
77985;DHT22;67177;47.240;-1.546;2023-01-29T13:56:27;6.50;56.50
77985;DHT22;67177;47.240;-1.546;2023-01-29T13:58:54;6.50;56.70
77985;DHT22;67177;47.240;-1.546;2023-01-29T14:04:22;6.30;56.90
77985;DHT22;67177;47.240;-1.546;2023-01-29T14:06:54;6.30;56.80
77985;DHT22;67177;47.240;-1.546;2023-01-29T14:12:02;6.30;56.70
77985;DHT22;67177;47.240;-1.546;2023-01-29T14:17:17;6.30;56.60
77985;DHT22;67177;47.240;-1.546;2023-01-29T14:19:52;6.30;56.60
77985;DHT22;67177;47.240;-1.546;2023-01-29T14:22:22;6.30;56.80
77985;DHT22;67177;47.240;-1.546;2023-01-29T14:24:52;6.30;56.70
77985;DHT22;67177;47.240;-1.546;2023-01-29T14:27:20;6.30;56.60
77985;DHT22;67177;47.240;-1.546;2023-01-29T14:29:46;6.30;56.70
77985;DHT22;67177;47.240;-1.546;2023-01-29T14:32:17;6.30;56.50
77985;DHT22;67177;47.240;-1.546;2023-01-29T14:35:01;6.30;56.50
77985;DHT22;67177;47.240;-1.546;2023-01-29T14:37:49;6.30;56.40
77985;DHT22;67177;47.240;-1.546;2023-01-29T14:43:05;6.30;56.40
77985;DHT22;67177;47.240;-1.546;2023-01-29T14:45:38;6.20;56.20
77985;DHT22;67177;47.240;-1.546;2023-01-29T14:55:57;6.30;55.80
77985;DHT22;67177;47.240;-1.546;2023-01-29T15:01:37;6.40;56.10
77985;DHT22;67177;47.240;-1.546;2023-01-29T15:04:13;6.50;56.30
77985;DHT22;67177;47.240;-1.546;2023-01-29T15:06:46;6.40;56.20
77985;DHT22;67177;47.240;-1.546;2023-01-29T15:09:46;6.40;56.10
77985;DHT22;67177;47.240;-1.546;2023-01-29T15:17:58;6.20;56.10
77985;DHT22;67177;47.240;-1.546;2023-01-29T15:22:55;6.10;56.30
77985;DHT22;67177;47.240;-1.546;2023-01-29T15:25:21;6.10;56.40
77985;DHT22;67177;47.240;-1.546;2023-01-29T15:27:48;6.00;56.60
77985;DHT22;67177;47.240;-1.546;2023-01-29T15:30:21;6.00;56.60
77985;DHT22;67177;47.240;-1.546;2023-01-29T15:32:48;6.00;56.80
77985;DHT22;67177;47.240;-1.546;2023-01-29T15:35:35;6.10;56.90
77985;DHT22;67177;47.240;-1.546;2023-01-29T15:40:32;6.20;57.10
77985;DHT22;67177;47.240;-1.546;2023-01-29T15:42:58;6.20;57.30
77985;DHT22;67177;47.240;-1.546;2023-01-29T15:45:30;6.20;57.70
77985;DHT22;67177;47.240;-1.546;2023-01-29T15:48:02;6.20;57.80
77985;DHT22;67177;47.240;-1.546;2023-01-29T15:50:30;6.20;57.80
77985;DHT22;67177;47.240;-1.546;2023-01-29T15:52:58;6.20;57.60
77985;DHT22;67177;47.240;-1.546;2023-01-29T15:55:25;6.30;57.70
77985;DHT22;67177;47.240;-1.546;2023-01-29T15:57:51;6.30;57.70
77985;DHT22;67177;47.240;-1.546;2023-01-29T16:00:25;6.30;57.60
77985;DHT22;67177;47.240;-1.546;2023-01-29T16:02:53;6.30;57.70
77985;DHT22;67177;47.240;-1.546;2023-01-29T16:05:26;6.30;57.80
77985;DHT22;67177;47.240;-1.546;2023-01-29T16:07:53;6.30;57.80
77985;DHT22;67177;47.240;-1.546;2023-01-29T16:10:23;6.30;57.90
77985;DHT22;67177;47.240;-1.546;2023-01-29T16:12:49;6.30;57.80
77985;DHT22;67177;47.240;-1.546;2023-01-29T16:17:58;6.30;57.60
77985;DHT22;67177;47.240;-1.546;2023-01-29T16:20:44;6.30;57.30
77985;DHT22;67177;47.240;-1.546;2023-01-29T16:23:22;6.30;57.40
77985;DHT22;67177;47.240;-1.546;2023-01-29T16:25:50;6.30;57.40
77985;DHT22;67177;47.240;-1.546;2023-01-29T16:28:16;6.30;57.40
77985;DHT22;67177;47.240;-1.546;2023-01-29T16:30:42;6.30;57.40
77985;DHT22;67177;47.240;-1.546;2023-01-29T16:33:12;6.30;57.40
77985;DHT22;67177;47.240;-1.546;2023-01-29T16:35:39;6.30;57.30
77985;DHT22;67177;47.240;-1.546;2023-01-29T16:38:28;6.20;57.40
77985;DHT22;67177;47.240;-1.546;2023-01-29T16:43:50;6.20;57.30
77985;DHT22;67177;47.240;-1.546;2023-01-29T16:46:19;6.20;57.20
77985;DHT22;67177;47.240;-1.546;2023-01-29T16:48:48;6.20;57.20
77985;DHT22;67177;47.240;-1.546;2023-01-29T16:51:19;6.20;57.40
77985;DHT22;67177;47.240;-1.546;2023-01-29T16:54:11;6.20;57.60
77985;DHT22;67177;47.240;-1.546;2023-01-29T16:56:44;6.10;57.80
77985;DHT22;67177;47.240;-1.546;2023-01-29T16:59:20;6.10;57.90
77985;DHT22;67177;47.240;-1.546;2023-01-29T17:01:47;6.10;58.00
77985;DHT22;67177;47.240;-1.546;2023-01-29T17:04:15;6.10;58.00
77985;DHT22;67177;47.240;-1.546;2023-01-29T17:06:46;6.10;58.00
77985;DHT22;67177;47.240;-1.546;2023-01-29T17:09:20;6.10;58.10
77985;DHT22;67177;47.240;-1.546;2023-01-29T17:11:54;6.10;58.20
77985;DHT22;67177;47.240;-1.546;2023-01-29T17:14:22;6.10;58.10
77985;DHT22;67177;47.240;-1.546;2023-01-29T17:16:53;6.10;58.10
77985;DHT22;67177;47.240;-1.546;2023-01-29T17:19:18;6.10;58.30
77985;DHT22;67177;47.240;-1.546;2023-01-29T17:21:45;6.10;58.30
77985;DHT22;67177;47.240;-1.546;2023-01-29T17:24:11;6.10;58.50
77985;DHT22;67177;47.240;-1.546;2023-01-29T17:26:37;6.00;58.90
77985;DHT22;67177;47.240;-1.546;2023-01-29T17:29:03;6.00;59.10
77985;DHT22;67177;47.240;-1.546;2023-01-29T17:31:29;6.00;59.10
77985;DHT22;67177;47.240;-1.546;2023-01-29T17:33:54;6.00;59.30
77985;DHT22;67177;47.240;-1.546;2023-01-29T17:36:20;6.00;59.30
77985;DHT22;67177;47.240;-1.546;2023-01-29T17:38:46;6.00;59.40
77985;DHT22;67177;47.240;-1.546;2023-01-29T17:41:17;6.00;59.40
77985;DHT22;67177;47.240;-1.546;2023-01-29T17:43:44;6.00;59.40
77985;DHT22;67177;47.240;-1.546;2023-01-29T17:46:14;6.10;59.40
77985;DHT22;67177;47.240;-1.546;2023-01-29T17:48:40;6.10;59.50
77985;DHT22;67177;47.240;-1.546;2023-01-29T17:51:15;6.10;59.40
77985;DHT22;67177;47.240;-1.546;2023-01-29T17:53:41;6.10;59.50
77985;DHT22;67177;47.240;-1.546;2023-01-29T17:56:24;6.10;59.80
77985;DHT22;67177;47.240;-1.546;2023-01-29T17:58:53;6.00;59.90
77985;DHT22;67177;47.240;-1.546;2023-01-29T18:01:19;6.00;59.90
77985;DHT22;67177;47.240;-1.546;2023-01-29T18:03:45;6.00;59.90
77985;DHT22;67177;47.240;-1.546;2023-01-29T18:06:26;6.00;60.10
77985;DHT22;67177;47.240;-1.546;2023-01-29T18:08:52;6.00;60.30
77985;DHT22;67177;47.240;-1.546;2023-01-29T18:11:17;6.00;60.50
77985;DHT22;67177;47.240;-1.546;2023-01-29T18:13:43;6.00;60.50
77985;DHT22;67177;47.240;-1.546;2023-01-29T18:16:09;6.00;60.60
77985;DHT22;67177;47.240;-1.546;2023-01-29T18:18:34;6.00;60.80
77985;DHT22;67177;47.240;-1.546;2023-01-29T18:21:00;6.00;60.90
77985;DHT22;67177;47.240;-1.546;2023-01-29T18:23:26;6.00;60.90
77985;DHT22;67177;47.240;-1.546;2023-01-29T18:25:53;6.00;60.90
77985;DHT22;67177;47.240;-1.546;2023-01-29T18:28:22;6.00;60.80
77985;DHT22;67177;47.240;-1.546;2023-01-29T18:30:48;6.00;60.50
77985;DHT22;67177;47.240;-1.546;2023-01-29T18:33:15;6.10;60.50